sensor_id;sensor_type;location;lat;lon;timestamp;P1;durP1;ratioP1;P2;durP2;ratioP2
56242;SDS011;42155;53.096;23.226;2022-10-17T00:01:19;23.42;;;13.73;;
56242;SDS011;42155;53.096;23.226;2022-10-17T00:03:20;22.33;;;13.07;;
56242;SDS011;42155;53.096;23.226;2022-10-17T00:07:58;22.38;;;13.18;;
56242;SDS011;42155;53.096;23.226;2022-10-17T00:09:58;25.63;;;13.75;;
56242;SDS011;42155;53.096;23.226;2022-10-17T00:11:59;24.48;;;14.50;;
56242;SDS011;42155;53.096;23.226;2022-10-17T00:13:59;33.50;;;14.90;;
56242;SDS011;42155;53.096;23.226;2022-10-17T00:15:59;21.77;;;13.50;;
56242;SDS011;42155;53.096;23.226;2022-10-17T00:18:01;22.27;;;14.05;;
56242;SDS011;42155;53.096;23.226;2022-10-17T00:20:01;21.60;;;12.95;;
56242;SDS011;42155;53.096;23.226;2022-10-17T00:22:02;21.58;;;13.45;;
56242;SDS011;42155;53.096;23.226;2022-10-17T00:24:02;24.30;;;14.38;;
56242;SDS011;42155;53.096;23.226;2022-10-17T00:26:04;23.40;;;13.48;;
56242;SDS011;42155;53.096;23.226;2022-10-17T00:28:05;28.40;;;14.20;;
56242;SDS011;42155;53.096;23.226;2022-10-17T00:30:09;25.65;;;14.02;;
56242;SDS011;42155;53.096;23.226;2022-10-17T00:32:11;27.95;;;14.95;;
56242;SDS011;42155;53.096;23.226;2022-10-17T00:34:12;26.38;;;14.80;;
56242;SDS011;42155;53.096;23.226;2022-10-17T00:36:13;22.65;;;13.95;;
56242;SDS011;42155;53.096;23.226;2022-10-17T00:38:16;24.58;;;14.30;;
56242;SDS011;42155;53.096;23.226;2022-10-17T00:40:16;23.77;;;14.25;;
56242;SDS011;42155;53.096;23.226;2022-10-17T00:42:16;24.67;;;14.45;;
56242;SDS011;42155;53.096;23.226;2022-10-17T00:46:30;22.15;;;14.20;;
56242;SDS011;42155;53.096;23.226;2022-10-17T00:48:32;22.17;;;13.82;;
56242;SDS011;42155;53.096;23.226;2022-10-17T00:50:33;25.52;;;13.77;;
56242;SDS011;42155;53.096;23.226;2022-10-17T00:52:35;24.70;;;14.23;;
56242;SDS011;42155;53.096;23.226;2022-10-17T00:54:37;23.33;;;15.13;;
56242;SDS011;42155;53.096;23.226;2022-10-17T00:56:41;22.80;;;13.50;;
56242;SDS011;42155;53.096;23.226;2022-10-17T00:58:42;29.45;;;15.88;;
56242;SDS011;42155;53.096;23.226;2022-10-17T01:00:42;24.02;;;13.88;;
56242;SDS011;42155;53.096;23.226;2022-10-17T01:02:45;27.33;;;14.40;;
56242;SDS011;42155;53.096;23.226;2022-10-17T01:04:47;26.35;;;15.40;;
56242;SDS011;42155;53.096;23.226;2022-10-17T01:06:49;22.23;;;12.40;;
56242;SDS011;42155;53.096;23.226;2022-10-17T01:08:49;24.33;;;13.15;;
56242;SDS011;42155;53.096;23.226;2022-10-17T01:13:15;23.97;;;13.17;;
56242;SDS011;42155;53.096;23.226;2022-10-17T01:24:51;20.83;;;12.43;;
56242;SDS011;42155;53.096;23.226;2022-10-17T01:31:23;23.25;;;12.75;;
56242;SDS011;42155;53.096;23.226;2022-10-17T01:35:54;20.08;;;12.45;;
56242;SDS011;42155;53.096;23.226;2022-10-17T01:38:02;28.38;;;14.10;;
56242;SDS011;42155;53.096;23.226;2022-10-17T01:40:29;22.63;;;12.90;;
56242;SDS011;42155;53.096;23.226;2022-10-17T01:47:04;21.13;;;12.32;;
56242;SDS011;42155;53.096;23.226;2022-10-17T01:49:08;23.73;;;12.90;;
56242;SDS011;42155;53.096;23.226;2022-10-17T01:51:56;22.10;;;13.10;;
56242;SDS011;42155;53.096;23.226;2022-10-17T01:53:44;21.95;;;13.43;;
56242;SDS011;42155;53.096;23.226;2022-10-17T01:55:49;23.70;;;13.80;;
56242;SDS011;42155;53.096;23.226;2022-10-17T01:58:00;24.13;;;14.20;;
56242;SDS011;42155;53.096;23.226;2022-10-17T02:00:08;25.63;;;14.07;;
56242;SDS011;42155;53.096;23.226;2022-10-17T02:02:12;21.55;;;13.18;;
56242;SDS011;42155;53.096;23.226;2022-10-17T02:04:14;22.85;;;13.27;;
56242;SDS011;42155;53.096;23.226;2022-10-17T02:06:14;26.13;;;14.70;;
56242;SDS011;42155;53.096;23.226;2022-10-17T02:08:23;21.58;;;13.65;;
56242;SDS011;42155;53.096;23.226;2022-10-17T02:10:53;25.23;;;13.52;;
56242;SDS011;42155;53.096;23.226;2022-10-17T02:13:01;25.25;;;13.98;;
56242;SDS011;42155;53.096;23.226;2022-10-17T02:18:26;21.23;;;12.48;;
56242;SDS011;42155;53.096;23.226;2022-10-17T02:20:25;22.70;;;12.93;;
56242;SDS011;42155;53.096;23.226;2022-10-17T02:27:12;22.00;;;13.05;;
56242;SDS011;42155;53.096;23.226;2022-10-17T02:29:26;25.60;;;13.25;;
56242;SDS011;42155;53.096;23.226;2022-10-17T02:31:53;20.23;;;13.07;;
56242;SDS011;42155;53.096;23.226;2022-10-17T02:33:58;24.95;;;14.85;;
56242;SDS011;42155;53.096;23.226;2022-10-17T02:36:05;22.42;;;13.45;;
56242;SDS011;42155;53.096;23.226;2022-10-17T02:38:11;26.52;;;13.98;;
56242;SDS011;42155;53.096;23.226;2022-10-17T02:40:14;24.08;;;13.43;;
56242;SDS011;42155;53.096;23.226;2022-10-17T02:42:16;22.17;;;13.20;;
56242;SDS011;42155;53.096;23.226;2022-10-17T02:44:17;24.80;;;14.15;;
56242;SDS011;42155;53.096;23.226;2022-10-17T02:46:20;28.45;;;15.07;;
56242;SDS011;42155;53.096;23.226;2022-10-17T02:48:43;28.73;;;15.27;;
56242;SDS011;42155;53.096;23.226;2022-10-17T02:50:56;24.85;;;14.18;;
56242;SDS011;42155;53.096;23.226;2022-10-17T02:53:20;23.40;;;13.93;;
56242;SDS011;42155;53.096;23.226;2022-10-17T02:55:30;24.65;;;14.10;;
56242;SDS011;42155;53.096;23.226;2022-10-17T02:57:43;23.17;;;13.15;;
56242;SDS011;42155;53.096;23.226;2022-10-17T03:01:57;25.13;;;14.70;;
56242;SDS011;42155;53.096;23.226;2022-10-17T03:04:08;22.63;;;12.80;;
56242;SDS011;42155;53.096;23.226;2022-10-17T03:06:10;26.83;;;14.27;;
56242;SDS011;42155;53.096;23.226;2022-10-17T03:08:10;26.83;;;15.73;;
56242;SDS011;42155;53.096;23.226;2022-10-17T03:10:10;29.42;;;15.45;;
56242;SDS011;42155;53.096;23.226;2022-10-17T03:12:11;28.10;;;15.73;;
56242;SDS011;42155;53.096;23.226;2022-10-17T03:14:11;28.55;;;15.40;;
56242;SDS011;42155;53.096;23.226;2022-10-17T03:16:11;35.03;;;18.00;;
56242;SDS011;42155;53.096;23.226;2022-10-17T03:18:12;29.27;;;16.90;;
56242;SDS011;42155;53.096;23.226;2022-10-17T03:20:12;31.25;;;17.38;;
56242;SDS011;42155;53.096;23.226;2022-10-17T03:24:29;30.73;;;17.15;;
56242;SDS011;42155;53.096;23.226;2022-10-17T03:26:29;29.08;;;16.27;;
56242;SDS011;42155;53.096;23.226;2022-10-17T03:28:30;29.23;;;16.77;;
56242;SDS011;42155;53.096;23.226;2022-10-17T03:30:30;26.98;;;15.68;;
56242;SDS011;42155;53.096;23.226;2022-10-17T03:32:32;27.50;;;15.68;;
56242;SDS011;42155;53.096;23.226;2022-10-17T03:34:33;28.00;;;16.45;;
56242;SDS011;42155;53.096;23.226;2022-10-17T03:36:33;31.20;;;16.02;;
56242;SDS011;42155;53.096;23.226;2022-10-17T03:38:33;25.60;;;15.00;;
56242;SDS011;42155;53.096;23.226;2022-10-17T03:40:34;28.88;;;15.82;;
56242;SDS011;42155;53.096;23.226;2022-10-17T03:42:34;34.58;;;16.17;;
56242;SDS011;42155;53.096;23.226;2022-10-17T03:44:35;24.35;;;14.82;;
56242;SDS011;42155;53.096;23.226;2022-10-17T03:46:35;29.25;;;16.73;;
56242;SDS011;42155;53.096;23.226;2022-10-17T03:48:35;28.40;;;15.38;;
56242;SDS011;42155;53.096;23.226;2022-10-17T03:50:36;27.98;;;16.20;;
56242;SDS011;42155;53.096;23.226;2022-10-17T03:52:36;27.38;;;15.98;;
56242;SDS011;42155;53.096;23.226;2022-10-17T03:54:39;31.05;;;16.05;;
56242;SDS011;42155;53.096;23.226;2022-10-17T03:56:40;25.30;;;15.10;;
56242;SDS011;42155;53.096;23.226;2022-10-17T03:58:40;26.48;;;15.57;;
56242;SDS011;42155;53.096;23.226;2022-10-17T04:00:41;28.92;;;16.75;;
56242;SDS011;42155;53.096;23.226;2022-10-17T04:02:41;29.65;;;17.30;;
56242;SDS011;42155;53.096;23.226;2022-10-17T04:04:42;32.90;;;17.85;;
56242;SDS011;42155;53.096;23.226;2022-10-17T04:06:42;32.60;;;17.63;;
56242;SDS011;42155;53.096;23.226;2022-10-17T04:08:42;34.50;;;18.17;;
56242;SDS011;42155;53.096;23.226;2022-10-17T04:10:43;29.42;;;16.83;;
56242;SDS011;42155;53.096;23.226;2022-10-17T04:12:43;29.75;;;16.75;;
56242;SDS011;42155;53.096;23.226;2022-10-17T04:14:43;29.27;;;15.85;;
56242;SDS011;42155;53.096;23.226;2022-10-17T04:16:44;32.00;;;17.13;;
56242;SDS011;42155;53.096;23.226;2022-10-17T04:18:44;36.97;;;18.80;;
56242;SDS011;42155;53.096;23.226;2022-10-17T04:20:44;31.02;;;17.17;;
56242;SDS011;42155;53.096;23.226;2022-10-17T04:22:45;30.60;;;16.80;;
56242;SDS011;42155;53.096;23.226;2022-10-17T04:24:45;33.38;;;18.42;;
56242;SDS011;42155;53.096;23.226;2022-10-17T04:26:47;29.85;;;16.77;;
56242;SDS011;42155;53.096;23.226;2022-10-17T04:28:48;33.30;;;18.80;;
56242;SDS011;42155;53.096;23.226;2022-10-17T04:31:00;33.53;;;18.63;;
56242;SDS011;42155;53.096;23.226;2022-10-17T04:33:03;34.28;;;17.90;;
56242;SDS011;42155;53.096;23.226;2022-10-17T04:35:03;32.55;;;17.90;;
56242;SDS011;42155;53.096;23.226;2022-10-17T04:37:04;32.47;;;17.63;;
56242;SDS011;42155;53.096;23.226;2022-10-17T04:39:04;29.95;;;16.75;;
56242;SDS011;42155;53.096;23.226;2022-10-17T04:41:06;35.38;;;18.48;;
56242;SDS011;42155;53.096;23.226;2022-10-17T04:43:09;39.00;;;18.85;;
56242;SDS011;42155;53.096;23.226;2022-10-17T04:45:09;32.20;;;18.83;;
56242;SDS011;42155;53.096;23.226;2022-10-17T04:47:10;31.88;;;17.45;;
56242;SDS011;42155;53.096;23.226;2022-10-17T04:49:10;28.23;;;16.83;;
56242;SDS011;42155;53.096;23.226;2022-10-17T04:51:14;32.38;;;17.67;;
56242;SDS011;42155;53.096;23.226;2022-10-17T04:53:16;30.52;;;17.52;;
56242;SDS011;42155;53.096;23.226;2022-10-17T04:55:17;31.50;;;17.58;;
56242;SDS011;42155;53.096;23.226;2022-10-17T04:57:17;30.70;;;16.85;;
56242;SDS011;42155;53.096;23.226;2022-10-17T04:59:18;35.85;;;17.70;;
56242;SDS011;42155;53.096;23.226;2022-10-17T05:01:19;26.92;;;16.35;;
56242;SDS011;42155;53.096;23.226;2022-10-17T05:03:20;31.27;;;17.00;;
56242;SDS011;42155;53.096;23.226;2022-10-17T05:05:20;31.63;;;17.60;;
56242;SDS011;42155;53.096;23.226;2022-10-17T05:07:21;33.03;;;17.60;;
56242;SDS011;42155;53.096;23.226;2022-10-17T05:09:21;30.35;;;17.27;;
56242;SDS011;42155;53.096;23.226;2022-10-17T05:11:22;30.55;;;16.25;;
56242;SDS011;42155;53.096;23.226;2022-10-17T05:13:24;29.10;;;16.50;;
56242;SDS011;42155;53.096;23.226;2022-10-17T05:15:24;27.38;;;16.13;;
56242;SDS011;42155;53.096;23.226;2022-10-17T05:17:25;31.30;;;16.83;;
56242;SDS011;42155;53.096;23.226;2022-10-17T05:19:25;36.88;;;18.50;;
56242;SDS011;42155;53.096;23.226;2022-10-17T05:21:26;32.97;;;18.15;;
56242;SDS011;42155;53.096;23.226;2022-10-17T05:23:28;33.88;;;17.80;;
56242;SDS011;42155;53.096;23.226;2022-10-17T05:25:29;30.90;;;16.83;;
56242;SDS011;42155;53.096;23.226;2022-10-17T05:27:29;31.48;;;17.95;;
56242;SDS011;42155;53.096;23.226;2022-10-17T05:29:29;32.55;;;18.48;;
56242;SDS011;42155;53.096;23.226;2022-10-17T05:31:30;36.65;;;18.98;;
56242;SDS011;42155;53.096;23.226;2022-10-17T05:33:30;33.83;;;17.88;;
56242;SDS011;42155;53.096;23.226;2022-10-17T05:35:31;37.53;;;18.63;;
56242;SDS011;42155;53.096;23.226;2022-10-17T05:37:31;36.17;;;19.80;;
56242;SDS011;42155;53.096;23.226;2022-10-17T05:39:31;42.35;;;21.23;;
56242;SDS011;42155;53.096;23.226;2022-10-17T05:41:32;46.45;;;21.10;;
56242;SDS011;42155;53.096;23.226;2022-10-17T05:43:32;46.80;;;21.90;;
56242;SDS011;42155;53.096;23.226;2022-10-17T05:45:34;49.85;;;22.67;;
56242;SDS011;42155;53.096;23.226;2022-10-17T05:47:35;44.15;;;21.27;;
56242;SDS011;42155;53.096;23.226;2022-10-17T05:49:35;43.55;;;23.05;;
56242;SDS011;42155;53.096;23.226;2022-10-17T05:51:35;41.22;;;21.60;;
56242;SDS011;42155;53.096;23.226;2022-10-17T05:53:37;49.22;;;21.48;;
56242;SDS011;42155;53.096;23.226;2022-10-17T05:55:39;46.60;;;22.25;;
56242;SDS011;42155;53.096;23.226;2022-10-17T05:57:39;61.08;;;24.00;;
56242;SDS011;42155;53.096;23.226;2022-10-17T05:59:39;67.60;;;25.33;;
56242;SDS011;42155;53.096;23.226;2022-10-17T06:01:40;94.25;;;28.52;;
56242;SDS011;42155;53.096;23.226;2022-10-17T06:03:40;47.75;;;23.45;;
56242;SDS011;42155;53.096;23.226;2022-10-17T06:05:40;59.45;;;25.70;;
56242;SDS011;42155;53.096;23.226;2022-10-17T06:07:41;80.07;;;26.55;;
56242;SDS011;42155;53.096;23.226;2022-10-17T06:09:41;60.78;;;24.45;;
56242;SDS011;42155;53.096;23.226;2022-10-17T06:11:42;116.18;;;28.85;;
56242;SDS011;42155;53.096;23.226;2022-10-17T06:13:42;161.88;;;31.00;;
56242;SDS011;42155;53.096;23.226;2022-10-17T06:15:43;89.40;;;27.80;;
56242;SDS011;42155;53.096;23.226;2022-10-17T06:17:43;70.25;;;26.35;;
56242;SDS011;42155;53.096;23.226;2022-10-17T06:19:44;147.00;;;29.50;;
56242;SDS011;42155;53.096;23.226;2022-10-17T06:21:44;55.08;;;24.08;;
56242;SDS011;42155;53.096;23.226;2022-10-17T06:23:44;54.78;;;25.30;;
56242;SDS011;42155;53.096;23.226;2022-10-17T06:25:45;103.10;;;26.85;;
56242;SDS011;42155;53.096;23.226;2022-10-17T06:27:45;56.67;;;23.08;;
56242;SDS011;42155;53.096;23.226;2022-10-17T06:29:46;117.03;;;28.33;;
56242;SDS011;42155;53.096;23.226;2022-10-17T06:31:47;104.90;;;28.42;;
56242;SDS011;42155;53.096;23.226;2022-10-17T06:33:47;126.05;;;26.52;;
56242;SDS011;42155;53.096;23.226;2022-10-17T06:35:54;58.47;;;23.65;;
56242;SDS011;42155;53.096;23.226;2022-10-17T06:37:55;73.20;;;24.60;;
56242;SDS011;42155;53.096;23.226;2022-10-17T06:39:55;67.78;;;25.23;;
56242;SDS011;42155;53.096;23.226;2022-10-17T06:41:55;91.20;;;26.50;;
56242;SDS011;42155;53.096;23.226;2022-10-17T06:43:56;59.58;;;24.48;;
56242;SDS011;42155;53.096;23.226;2022-10-17T06:45:56;52.33;;;24.20;;
56242;SDS011;42155;53.096;23.226;2022-10-17T06:47:56;53.38;;;24.42;;
56242;SDS011;42155;53.096;23.226;2022-10-17T06:49:57;70.20;;;25.30;;
56242;SDS011;42155;53.096;23.226;2022-10-17T06:51:57;58.97;;;26.67;;
56242;SDS011;42155;53.096;23.226;2022-10-17T06:53:57;51.28;;;23.73;;
56242;SDS011;42155;53.096;23.226;2022-10-17T06:55:58;81.03;;;26.05;;
56242;SDS011;42155;53.096;23.226;2022-10-17T06:57:58;65.90;;;25.90;;
56242;SDS011;42155;53.096;23.226;2022-10-17T06:59:59;119.53;;;29.02;;
56242;SDS011;42155;53.096;23.226;2022-10-17T07:01:59;82.88;;;26.08;;
56242;SDS011;42155;53.096;23.226;2022-10-17T07:04:00;67.68;;;27.05;;
56242;SDS011;42155;53.096;23.226;2022-10-17T07:06:00;56.65;;;24.73;;
56242;SDS011;42155;53.096;23.226;2022-10-17T07:08:03;61.40;;;26.33;;
56242;SDS011;42155;53.096;23.226;2022-10-17T07:10:04;51.90;;;24.33;;
56242;SDS011;42155;53.096;23.226;2022-10-17T07:12:05;57.35;;;25.13;;
56242;SDS011;42155;53.096;23.226;2022-10-17T07:14:05;62.08;;;25.85;;
56242;SDS011;42155;53.096;23.226;2022-10-17T07:16:05;56.00;;;24.55;;
56242;SDS011;42155;53.096;23.226;2022-10-17T07:18:06;53.40;;;25.23;;
56242;SDS011;42155;53.096;23.226;2022-10-17T07:20:07;53.80;;;25.63;;
56242;SDS011;42155;53.096;23.226;2022-10-17T07:22:08;63.35;;;27.13;;
56242;SDS011;42155;53.096;23.226;2022-10-17T07:24:09;76.47;;;27.42;;
56242;SDS011;42155;53.096;23.226;2022-10-17T07:26:10;59.03;;;24.95;;
56242;SDS011;42155;53.096;23.226;2022-10-17T07:28:13;72.97;;;24.02;;
56242;SDS011;42155;53.096;23.226;2022-10-17T07:30:13;89.82;;;23.75;;
56242;SDS011;42155;53.096;23.226;2022-10-17T07:32:14;63.60;;;25.50;;
56242;SDS011;42155;53.096;23.226;2022-10-17T07:34:14;56.88;;;24.35;;
56242;SDS011;42155;53.096;23.226;2022-10-17T07:36:15;46.53;;;23.45;;
56242;SDS011;42155;53.096;23.226;2022-10-17T07:38:16;48.75;;;23.77;;
56242;SDS011;42155;53.096;23.226;2022-10-17T07:40:16;52.00;;;24.58;;
56242;SDS011;42155;53.096;23.226;2022-10-17T07:42:17;46.95;;;21.95;;
56242;SDS011;42155;53.096;23.226;2022-10-17T07:44:17;53.35;;;24.95;;
56242;SDS011;42155;53.096;23.226;2022-10-17T07:46:17;49.30;;;24.52;;
56242;SDS011;42155;53.096;23.226;2022-10-17T07:48:18;62.42;;;26.45;;
56242;SDS011;42155;53.096;23.226;2022-10-17T07:50:20;53.10;;;25.52;;
56242;SDS011;42155;53.096;23.226;2022-10-17T07:52:20;58.90;;;26.00;;
56242;SDS011;42155;53.096;23.226;2022-10-17T07:54:20;59.58;;;26.48;;
56242;SDS011;42155;53.096;23.226;2022-10-17T07:56:21;59.70;;;25.90;;
56242;SDS011;42155;53.096;23.226;2022-10-17T07:58:22;55.28;;;25.17;;
56242;SDS011;42155;53.096;23.226;2022-10-17T08:00:22;47.33;;;21.95;;
56242;SDS011;42155;53.096;23.226;2022-10-17T08:02:23;41.20;;;21.70;;
56242;SDS011;42155;53.096;23.226;2022-10-17T08:04:25;55.20;;;23.73;;
56242;SDS011;42155;53.096;23.226;2022-10-17T08:06:26;46.47;;;24.75;;
56242;SDS011;42155;53.096;23.226;2022-10-17T08:08:26;59.72;;;24.08;;
56242;SDS011;42155;53.096;23.226;2022-10-17T08:10:27;56.88;;;24.92;;
56242;SDS011;42155;53.096;23.226;2022-10-17T08:12:27;51.28;;;23.38;;
56242;SDS011;42155;53.096;23.226;2022-10-17T08:14:27;60.20;;;25.27;;
56242;SDS011;42155;53.096;23.226;2022-10-17T08:16:28;57.22;;;23.42;;
56242;SDS011;42155;53.096;23.226;2022-10-17T08:18:28;63.08;;;24.48;;
56242;SDS011;42155;53.096;23.226;2022-10-17T08:20:29;68.90;;;25.20;;
56242;SDS011;42155;53.096;23.226;2022-10-17T08:22:29;50.33;;;24.23;;
56242;SDS011;42155;53.096;23.226;2022-10-17T08:24:29;45.55;;;23.70;;
56242;SDS011;42155;53.096;23.226;2022-10-17T08:26:30;61.78;;;25.05;;
56242;SDS011;42155;53.096;23.226;2022-10-17T08:28:33;56.70;;;26.50;;
56242;SDS011;42155;53.096;23.226;2022-10-17T08:30:34;48.67;;;24.85;;
56242;SDS011;42155;53.096;23.226;2022-10-17T08:32:34;51.65;;;25.00;;
56242;SDS011;42155;53.096;23.226;2022-10-17T08:34:35;46.47;;;23.80;;
56242;SDS011;42155;53.096;23.226;2022-10-17T08:36:35;47.45;;;24.27;;
56242;SDS011;42155;53.096;23.226;2022-10-17T08:38:35;47.08;;;24.20;;
56242;SDS011;42155;53.096;23.226;2022-10-17T08:40:36;52.17;;;25.92;;
56242;SDS011;42155;53.096;23.226;2022-10-17T08:46:52;51.05;;;25.10;;
56242;SDS011;42155;53.096;23.226;2022-10-17T08:48:55;46.70;;;23.75;;
56242;SDS011;42155;53.096;23.226;2022-10-17T08:51:21;45.10;;;24.60;;
56242;SDS011;42155;53.096;23.226;2022-10-17T08:53:31;46.60;;;23.92;;
56242;SDS011;42155;53.096;23.226;2022-10-17T08:55:49;44.75;;;23.83;;
56242;SDS011;42155;53.096;23.226;2022-10-17T08:57:52;51.28;;;26.15;;
56242;SDS011;42155;53.096;23.226;2022-10-17T08:59:52;50.67;;;25.85;;
56242;SDS011;42155;53.096;23.226;2022-10-17T09:01:58;52.50;;;26.52;;
56242;SDS011;42155;53.096;23.226;2022-10-17T09:06:22;40.65;;;22.92;;
56242;SDS011;42155;53.096;23.226;2022-10-17T09:10:56;44.15;;;23.27;;
56242;SDS011;42155;53.096;23.226;2022-10-17T09:13:12;44.80;;;24.58;;
56242;SDS011;42155;53.096;23.226;2022-10-17T09:16:26;47.10;;;24.40;;
56242;SDS011;42155;53.096;23.226;2022-10-17T09:20:45;41.40;;;23.05;;
56242;SDS011;42155;53.096;23.226;2022-10-17T09:24:51;42.33;;;24.35;;
56242;SDS011;42155;53.096;23.226;2022-10-17T09:26:56;45.10;;;22.70;;
56242;SDS011;42155;53.096;23.226;2022-10-17T09:28:56;43.75;;;24.27;;
56242;SDS011;42155;53.096;23.226;2022-10-17T09:31:03;43.92;;;23.05;;
56242;SDS011;42155;53.096;23.226;2022-10-17T09:33:12;41.35;;;23.05;;
56242;SDS011;42155;53.096;23.226;2022-10-17T09:35:26;41.88;;;22.50;;
56242;SDS011;42155;53.096;23.226;2022-10-17T09:37:28;42.80;;;23.63;;
56242;SDS011;42155;53.096;23.226;2022-10-17T09:39:30;39.95;;;21.58;;
56242;SDS011;42155;53.096;23.226;2022-10-17T09:43:39;43.60;;;23.35;;
56242;SDS011;42155;53.096;23.226;2022-10-17T09:45:55;37.95;;;21.63;;
56242;SDS011;42155;53.096;23.226;2022-10-17T09:48:23;43.55;;;21.25;;
56242;SDS011;42155;53.096;23.226;2022-10-17T09:50:30;42.20;;;22.30;;
56242;SDS011;42155;53.096;23.226;2022-10-17T09:52:33;38.90;;;21.65;;
56242;SDS011;42155;53.096;23.226;2022-10-17T09:54:51;37.95;;;22.38;;
56242;SDS011;42155;53.096;23.226;2022-10-17T09:56:56;41.83;;;20.90;;
56242;SDS011;42155;53.096;23.226;2022-10-17T09:58:59;37.25;;;21.45;;
56242;SDS011;42155;53.096;23.226;2022-10-17T10:01:13;37.28;;;20.65;;
56242;SDS011;42155;53.096;23.226;2022-10-17T10:03:22;37.78;;;21.30;;
56242;SDS011;42155;53.096;23.226;2022-10-17T10:05:26;39.88;;;21.80;;
56242;SDS011;42155;53.096;23.226;2022-10-17T10:07:27;40.90;;;21.45;;
56242;SDS011;42155;53.096;23.226;2022-10-17T10:09:30;40.20;;;22.23;;
56242;SDS011;42155;53.096;23.226;2022-10-17T10:11:45;40.28;;;21.48;;
56242;SDS011;42155;53.096;23.226;2022-10-17T10:13:48;40.55;;;21.67;;
56242;SDS011;42155;53.096;23.226;2022-10-17T10:15:49;37.65;;;20.48;;
56242;SDS011;42155;53.096;23.226;2022-10-17T10:17:50;40.88;;;21.83;;
56242;SDS011;42155;53.096;23.226;2022-10-17T10:19:50;35.20;;;20.88;;
56242;SDS011;42155;53.096;23.226;2022-10-17T10:21:58;38.80;;;20.23;;
56242;SDS011;42155;53.096;23.226;2022-10-17T10:26:19;37.17;;;21.45;;
56242;SDS011;42155;53.096;23.226;2022-10-17T10:28:24;35.83;;;20.13;;
56242;SDS011;42155;53.096;23.226;2022-10-17T10:30:29;34.35;;;19.02;;
56242;SDS011;42155;53.096;23.226;2022-10-17T10:32:33;32.83;;;18.90;;
56242;SDS011;42155;53.096;23.226;2022-10-17T10:34:36;37.88;;;20.35;;
56242;SDS011;42155;53.096;23.226;2022-10-17T10:38:53;22.05;;;13.50;;
56242;SDS011;42155;53.096;23.226;2022-10-17T10:40:56;19.38;;;12.82;;
56242;SDS011;42155;53.096;23.226;2022-10-17T10:43:03;18.10;;;11.70;;
56242;SDS011;42155;53.096;23.226;2022-10-17T10:49:28;20.17;;;11.98;;
56242;SDS011;42155;53.096;23.226;2022-10-17T10:51:33;18.45;;;11.43;;
56242;SDS011;42155;53.096;23.226;2022-10-17T10:53:46;18.98;;;12.60;;
56242;SDS011;42155;53.096;23.226;2022-10-17T10:58:23;19.88;;;11.20;;
56242;SDS011;42155;53.096;23.226;2022-10-17T11:00:36;18.90;;;10.57;;
56242;SDS011;42155;53.096;23.226;2022-10-17T11:02:43;18.25;;;11.80;;
56242;SDS011;42155;53.096;23.226;2022-10-17T11:07:04;22.25;;;12.63;;
56242;SDS011;42155;53.096;23.226;2022-10-17T11:11:12;18.80;;;11.03;;
56242;SDS011;42155;53.096;23.226;2022-10-17T11:13:23;19.33;;;11.80;;
56242;SDS011;42155;53.096;23.226;2022-10-17T11:17:56;18.48;;;11.15;;
56242;SDS011;42155;53.096;23.226;2022-10-17T11:22:15;19.90;;;12.73;;
56242;SDS011;42155;53.096;23.226;2022-10-17T11:24:23;22.80;;;12.85;;
56242;SDS011;42155;53.096;23.226;2022-10-17T11:26:27;21.77;;;13.98;;
56242;SDS011;42155;53.096;23.226;2022-10-17T11:28:31;18.20;;;12.75;;
56242;SDS011;42155;53.096;23.226;2022-10-17T11:30:43;21.48;;;13.15;;
56242;SDS011;42155;53.096;23.226;2022-10-17T11:32:55;20.30;;;12.93;;
56242;SDS011;42155;53.096;23.226;2022-10-17T11:35:03;18.45;;;11.65;;
56242;SDS011;42155;53.096;23.226;2022-10-17T11:37:24;20.30;;;11.55;;
56242;SDS011;42155;53.096;23.226;2022-10-17T11:39:39;21.08;;;12.40;;
56242;SDS011;42155;53.096;23.226;2022-10-17T11:43:58;19.30;;;11.35;;
56242;SDS011;42155;53.096;23.226;2022-10-17T11:46:19;16.52;;;11.05;;
56242;SDS011;42155;53.096;23.226;2022-10-17T11:48:41;18.83;;;11.63;;
56242;SDS011;42155;53.096;23.226;2022-10-17T11:51:07;17.02;;;11.23;;
56242;SDS011;42155;53.096;23.226;2022-10-17T11:53:16;24.25;;;11.45;;
56242;SDS011;42155;53.096;23.226;2022-10-17T11:55:25;19.27;;;11.15;;
56242;SDS011;42155;53.096;23.226;2022-10-17T12:04:55;18.17;;;10.98;;
56242;SDS011;42155;53.096;23.226;2022-10-17T12:07:13;20.65;;;10.18;;
56242;SDS011;42155;53.096;23.226;2022-10-17T12:11:55;13.80;;;9.23;;
56242;SDS011;42155;53.096;23.226;2022-10-17T12:13:57;15.15;;;9.73;;
56242;SDS011;42155;53.096;23.226;2022-10-17T12:16:35;12.18;;;8.95;;
56242;SDS011;42155;53.096;23.226;2022-10-17T12:18:18;14.40;;;8.35;;
56242;SDS011;42155;53.096;23.226;2022-10-17T12:22:22;12.50;;;7.60;;
56242;SDS011;42155;53.096;23.226;2022-10-17T12:24:28;10.88;;;7.22;;
56242;SDS011;42155;53.096;23.226;2022-10-17T12:29:23;11.70;;;7.22;;
56242;SDS011;42155;53.096;23.226;2022-10-17T12:31:27;10.88;;;7.07;;
56242;SDS011;42155;53.096;23.226;2022-10-17T12:33:36;9.95;;;7.05;;
56242;SDS011;42155;53.096;23.226;2022-10-17T12:36:36;12.27;;;7.80;;
56242;SDS011;42155;53.096;23.226;2022-10-17T12:38:26;11.93;;;7.38;;
56242;SDS011;42155;53.096;23.226;2022-10-17T12:42:44;11.63;;;7.90;;
56242;SDS011;42155;53.096;23.226;2022-10-17T12:44:47;11.95;;;7.60;;
56242;SDS011;42155;53.096;23.226;2022-10-17T12:49:01;14.07;;;6.95;;
56242;SDS011;42155;53.096;23.226;2022-10-17T12:51:16;10.90;;;7.25;;
56242;SDS011;42155;53.096;23.226;2022-10-17T12:53:17;13.70;;;7.88;;
56242;SDS011;42155;53.096;23.226;2022-10-17T12:55:23;12.52;;;7.85;;
56242;SDS011;42155;53.096;23.226;2022-10-17T12:59:42;12.90;;;7.68;;
56242;SDS011;42155;53.096;23.226;2022-10-17T13:01:44;12.85;;;8.07;;
56242;SDS011;42155;53.096;23.226;2022-10-17T13:03:46;14.68;;;8.68;;
56242;SDS011;42155;53.096;23.226;2022-10-17T13:05:55;14.20;;;8.85;;
56242;SDS011;42155;53.096;23.226;2022-10-17T13:08:00;12.73;;;8.93;;
56242;SDS011;42155;53.096;23.226;2022-10-17T13:10:03;12.75;;;8.40;;
56242;SDS011;42155;53.096;23.226;2022-10-17T13:12:05;14.18;;;8.27;;
56242;SDS011;42155;53.096;23.226;2022-10-17T13:14:12;14.75;;;8.48;;
56242;SDS011;42155;53.096;23.226;2022-10-17T13:18:38;18.23;;;9.52;;
56242;SDS011;42155;53.096;23.226;2022-10-17T13:20:39;18.90;;;9.68;;
56242;SDS011;42155;53.096;23.226;2022-10-17T13:22:42;17.95;;;10.73;;
56242;SDS011;42155;53.096;23.226;2022-10-17T13:24:44;20.90;;;10.07;;
56242;SDS011;42155;53.096;23.226;2022-10-17T13:26:45;18.35;;;10.18;;
56242;SDS011;42155;53.096;23.226;2022-10-17T13:28:59;16.65;;;10.13;;
56242;SDS011;42155;53.096;23.226;2022-10-17T13:30:59;18.23;;;11.60;;
56242;SDS011;42155;53.096;23.226;2022-10-17T13:33:00;17.90;;;10.70;;
56242;SDS011;42155;53.096;23.226;2022-10-17T13:35:05;16.92;;;11.05;;
56242;SDS011;42155;53.096;23.226;2022-10-17T13:37:16;16.00;;;10.43;;